sensor_id;sensor_type;location;lat;lon;timestamp;pressure;altitude;pressure_sealevel;temperature;humidity
34065;BME280;20339;49.754;20.158;2022-12-18T00:00:21;97911.46;;;-6.44;95.76
34065;BME280;20339;49.754;20.158;2022-12-18T00:03:13;97918.70;;;-6.40;95.62
34065;BME280;20339;49.754;20.158;2022-12-18T00:05:48;97924.20;;;-6.39;95.61
34065;BME280;20339;49.754;20.158;2022-12-18T00:08:17;97925.92;;;-6.37;95.73
34065;BME280;20339;49.754;20.158;2022-12-18T00:10:46;97929.77;;;-6.38;95.65
34065;BME280;20339;49.754;20.158;2022-12-18T00:13:15;97933.33;;;-6.39;95.44
34065;BME280;20339;49.754;20.158;2022-12-18T00:15:43;97927.98;;;-6.40;95.29
34065;BME280;20339;49.754;20.158;2022-12-18T00:18:12;97933.91;;;-6.41;95.52
34065;BME280;20339;49.754;20.158;2022-12-18T00:20:40;97941.91;;;-6.44;95.19
34065;BME280;20339;49.754;20.158;2022-12-18T00:23:09;97944.48;;;-6.46;95.04
34065;BME280;20339;49.754;20.158;2022-12-18T00:25:38;97940.89;;;-6.48;94.93
34065;BME280;20339;49.754;20.158;2022-12-18T00:28:07;97949.60;;;-6.49;94.93
34065;BME280;20339;49.754;20.158;2022-12-18T00:30:36;97946.87;;;-6.52;94.68
34065;BME280;20339;49.754;20.158;2022-12-18T00:33:05;97949.67;;;-6.54;94.74
34065;BME280;20339;49.754;20.158;2022-12-18T00:35:34;97952.13;;;-6.59;94.42
34065;BME280;20339;49.754;20.158;2022-12-18T00:38:03;97956.06;;;-6.62;94.39
34065;BME280;20339;49.754;20.158;2022-12-18T00:40:34;97965.11;;;-6.64;94.25
34065;BME280;20339;49.754;20.158;2022-12-18T00:43:03;97966.77;;;-6.66;94.22
34065;BME280;20339;49.754;20.158;2022-12-18T00:45:32;97973.58;;;-6.68;94.27
34065;BME280;20339;49.754;20.158;2022-12-18T00:48:00;97975.85;;;-6.68;94.14
34065;BME280;20339;49.754;20.158;2022-12-18T00:50:28;97980.12;;;-6.70;94.09
34065;BME280;20339;49.754;20.158;2022-12-18T00:52:59;97980.40;;;-6.71;94.04
34065;BME280;20339;49.754;20.158;2022-12-18T00:55:28;97985.71;;;-6.71;94.15
34065;BME280;20339;49.754;20.158;2022-12-18T00:57:56;97994.27;;;-6.70;93.93
34065;BME280;20339;49.754;20.158;2022-12-18T01:00:25;97998.55;;;-6.70;94.02
34065;BME280;20339;49.754;20.158;2022-12-18T01:02:53;97999.48;;;-6.71;94.01
34065;BME280;20339;49.754;20.158;2022-12-18T01:05:22;97998.90;;;-6.70;93.61
34065;BME280;20339;49.754;20.158;2022-12-18T01:07:50;98002.83;;;-6.68;93.85
34065;BME280;20339;49.754;20.158;2022-12-18T01:10:19;98002.14;;;-6.66;93.65
34065;BME280;20339;49.754;20.158;2022-12-18T01:12:47;98002.73;;;-6.69;93.40
34065;BME280;20339;49.754;20.158;2022-12-18T01:15:16;98008.84;;;-6.70;93.26
34065;BME280;20339;49.754;20.158;2022-12-18T01:17:45;98009.63;;;-6.69;93.48
34065;BME280;20339;49.754;20.158;2022-12-18T01:20:14;98015.32;;;-6.67;93.62
34065;BME280;20339;49.754;20.158;2022-12-18T01:22:42;98016.48;;;-6.69;93.25
34065;BME280;20339;49.754;20.158;2022-12-18T01:25:10;98021.18;;;-6.69;93.36
34065;BME280;20339;49.754;20.158;2022-12-18T01:27:39;98023.79;;;-6.70;93.51
34065;BME280;20339;49.754;20.158;2022-12-18T01:30:11;98022.98;;;-6.70;93.37
34065;BME280;20339;49.754;20.158;2022-12-18T01:32:42;98023.49;;;-6.67;93.56
34065;BME280;20339;49.754;20.158;2022-12-18T01:35:11;98024.58;;;-6.67;93.54
34065;BME280;20339;49.754;20.158;2022-12-18T01:37:39;98026.96;;;-6.71;93.44
34065;BME280;20339;49.754;20.158;2022-12-18T01:40:10;98030.58;;;-6.73;93.33
34065;BME280;20339;49.754;20.158;2022-12-18T01:42:39;98033.84;;;-6.74;93.28
34065;BME280;20339;49.754;20.158;2022-12-18T01:45:22;98034.55;;;-6.75;93.30
34065;BME280;20339;49.754;20.158;2022-12-18T01:47:54;98033.48;;;-6.76;93.16
34065;BME280;20339;49.754;20.158;2022-12-18T01:50:27;98034.49;;;-6.78;93.29
34065;BME280;20339;49.754;20.158;2022-12-18T01:52:59;98037.66;;;-6.79;92.71
34065;BME280;20339;49.754;20.158;2022-12-18T01:55:31;98040.95;;;-6.81;92.93
34065;BME280;20339;49.754;20.158;2022-12-18T01:58:01;98049.64;;;-6.86;92.73
34065;BME280;20339;49.754;20.158;2022-12-18T02:00:30;98059.36;;;-6.89;92.58
34065;BME280;20339;49.754;20.158;2022-12-18T02:02:58;98058.24;;;-6.92;92.77
34065;BME280;20339;49.754;20.158;2022-12-18T02:05:40;98062.83;;;-6.94;92.73
34065;BME280;20339;49.754;20.158;2022-12-18T02:08:18;98067.02;;;-6.88;92.98
34065;BME280;20339;49.754;20.158;2022-12-18T02:10:57;98069.19;;;-6.81;93.30
34065;BME280;20339;49.754;20.158;2022-12-18T02:13:38;98074.96;;;-6.81;93.38
34065;BME280;20339;49.754;20.158;2022-12-18T02:16:17;98073.87;;;-6.74;93.39
34065;BME280;20339;49.754;20.158;2022-12-18T02:18:50;98076.00;;;-6.71;93.51
34065;BME280;20339;49.754;20.158;2022-12-18T02:21:26;98078.90;;;-6.73;93.32
34065;BME280;20339;49.754;20.158;2022-12-18T02:24:07;98085.41;;;-6.77;93.08
34065;BME280;20339;49.754;20.158;2022-12-18T02:26:40;98090.84;;;-6.82;93.05
34065;BME280;20339;49.754;20.158;2022-12-18T02:29:15;98094.17;;;-6.88;93.03
34065;BME280;20339;49.754;20.158;2022-12-18T02:31:47;98090.83;;;-6.97;92.86
34065;BME280;20339;49.754;20.158;2022-12-18T02:34:19;98093.77;;;-7.03;92.94
34065;BME280;20339;49.754;20.158;2022-12-18T02:36:50;98101.13;;;-7.07;93.10
34065;BME280;20339;49.754;20.158;2022-12-18T02:39:21;98102.29;;;-7.09;93.08
34065;BME280;20339;49.754;20.158;2022-12-18T02:41:51;98104.30;;;-7.08;92.97
34065;BME280;20339;49.754;20.158;2022-12-18T02:44:21;98110.59;;;-7.11;93.04
34065;BME280;20339;49.754;20.158;2022-12-18T02:46:52;98111.40;;;-7.14;93.10
34065;BME280;20339;49.754;20.158;2022-12-18T02:49:34;98113.67;;;-7.19;93.25
34065;BME280;20339;49.754;20.158;2022-12-18T02:52:13;98118.52;;;-7.26;93.14
34065;BME280;20339;49.754;20.158;2022-12-18T02:55:03;98116.02;;;-7.29;93.23
34065;BME280;20339;49.754;20.158;2022-12-18T02:57:40;98121.67;;;-7.25;93.61
34065;BME280;20339;49.754;20.158;2022-12-18T03:00:14;98126.05;;;-7.20;93.73
34065;BME280;20339;49.754;20.158;2022-12-18T03:02:48;98134.16;;;-7.18;93.75
34065;BME280;20339;49.754;20.158;2022-12-18T03:05:22;98136.83;;;-7.19;93.80
34065;BME280;20339;49.754;20.158;2022-12-18T03:07:56;98140.09;;;-7.19;93.70
34065;BME280;20339;49.754;20.158;2022-12-18T03:10:27;98143.42;;;-7.17;93.82
34065;BME280;20339;49.754;20.158;2022-12-18T03:13:02;98144.75;;;-7.15;93.98
34065;BME280;20339;49.754;20.158;2022-12-18T03:15:35;98142.36;;;-7.11;93.91
34065;BME280;20339;49.754;20.158;2022-12-18T03:18:08;98149.48;;;-7.06;94.01
34065;BME280;20339;49.754;20.158;2022-12-18T03:20:40;98153.45;;;-7.02;94.15
34065;BME280;20339;49.754;20.158;2022-12-18T03:23:13;98153.89;;;-6.97;94.09
34065;BME280;20339;49.754;20.158;2022-12-18T03:25:45;98158.96;;;-6.92;94.10
34065;BME280;20339;49.754;20.158;2022-12-18T03:28:20;98156.17;;;-6.92;93.84
34065;BME280;20339;49.754;20.158;2022-12-18T03:30:52;98156.21;;;-6.90;93.91
34065;BME280;20339;49.754;20.158;2022-12-18T03:33:27;98153.95;;;-6.86;93.91
34065;BME280;20339;49.754;20.158;2022-12-18T03:35:57;98159.07;;;-6.81;94.01
34065;BME280;20339;49.754;20.158;2022-12-18T03:38:31;98163.59;;;-6.76;94.01
34065;BME280;20339;49.754;20.158;2022-12-18T03:41:03;98161.73;;;-6.70;94.11
34065;BME280;20339;49.754;20.158;2022-12-18T03:43:42;98162.20;;;-6.68;94.18
34065;BME280;20339;49.754;20.158;2022-12-18T03:46:24;98173.64;;;-6.69;93.94
34065;BME280;20339;49.754;20.158;2022-12-18T03:49:00;98177.23;;;-6.69;93.68
34065;BME280;20339;49.754;20.158;2022-12-18T03:51:37;98179.95;;;-6.70;93.69
34065;BME280;20339;49.754;20.158;2022-12-18T03:54:09;98177.84;;;-6.72;93.70
34065;BME280;20339;49.754;20.158;2022-12-18T03:56:48;98181.58;;;-6.73;93.76
34065;BME280;20339;49.754;20.158;2022-12-18T03:59:20;98184.52;;;-6.71;93.83
34065;BME280;20339;49.754;20.158;2022-12-18T04:01:51;98189.73;;;-6.70;93.62
34065;BME280;20339;49.754;20.158;2022-12-18T04:04:22;98190.30;;;-6.69;93.56
34065;BME280;20339;49.754;20.158;2022-12-18T04:06:52;98188.02;;;-6.66;93.72
34065;BME280;20339;49.754;20.158;2022-12-18T04:09:21;98189.54;;;-6.64;93.62
34065;BME280;20339;49.754;20.158;2022-12-18T04:11:52;98192.04;;;-6.61;93.72
34065;BME280;20339;49.754;20.158;2022-12-18T04:14:20;98197.10;;;-6.58;93.78
34065;BME280;20339;49.754;20.158;2022-12-18T04:16:48;98199.55;;;-6.56;93.71
34065;BME280;20339;49.754;20.158;2022-12-18T04:19:17;98204.38;;;-6.56;93.49
34065;BME280;20339;49.754;20.158;2022-12-18T04:21:45;98204.69;;;-6.60;93.45
34065;BME280;20339;49.754;20.158;2022-12-18T04:24:13;98206.81;;;-6.63;93.31
34065;BME280;20339;49.754;20.158;2022-12-18T04:26:42;98216.14;;;-6.64;93.40
34065;BME280;20339;49.754;20.158;2022-12-18T04:29:10;98221.63;;;-6.63;93.44
34065;BME280;20339;49.754;20.158;2022-12-18T04:31:39;98223.64;;;-6.65;93.33
34065;BME280;20339;49.754;20.158;2022-12-18T04:34:07;98221.44;;;-6.67;93.23
34065;BME280;20339;49.754;20.158;2022-12-18T04:36:36;98221.13;;;-6.70;93.30
34065;BME280;20339;49.754;20.158;2022-12-18T04:39:04;98224.80;;;-6.72;93.30
34065;BME280;20339;49.754;20.158;2022-12-18T04:41:33;98225.55;;;-6.73;93.44
34065;BME280;20339;49.754;20.158;2022-12-18T04:44:01;98229.10;;;-6.74;93.25
34065;BME280;20339;49.754;20.158;2022-12-18T04:46:29;98233.04;;;-6.74;93.56
34065;BME280;20339;49.754;20.158;2022-12-18T04:48:58;98236.05;;;-6.73;93.57
34065;BME280;20339;49.754;20.158;2022-12-18T04:51:26;98235.89;;;-6.73;93.17
34065;BME280;20339;49.754;20.158;2022-12-18T04:53:55;98241.63;;;-6.72;93.35
34065;BME280;20339;49.754;20.158;2022-12-18T04:56:23;98245.83;;;-6.73;93.17
34065;BME280;20339;49.754;20.158;2022-12-18T04:58:52;98253.62;;;-6.73;93.23
34065;BME280;20339;49.754;20.158;2022-12-18T05:01:20;98255.27;;;-6.72;93.36
34065;BME280;20339;49.754;20.158;2022-12-18T05:03:48;98261.28;;;-6.72;93.09
34065;BME280;20339;49.754;20.158;2022-12-18T05:06:17;98263.59;;;-6.73;93.15
34065;BME280;20339;49.754;20.158;2022-12-18T05:08:45;98267.73;;;-6.74;93.21
34065;BME280;20339;49.754;20.158;2022-12-18T05:11:14;98267.30;;;-6.73;93.19
34065;BME280;20339;49.754;20.158;2022-12-18T05:13:46;98272.73;;;-6.72;93.39
34065;BME280;20339;49.754;20.158;2022-12-18T05:16:15;98273.06;;;-6.70;93.24
34065;BME280;20339;49.754;20.158;2022-12-18T05:18:46;98272.46;;;-6.69;93.32
34065;BME280;20339;49.754;20.158;2022-12-18T05:21:14;98272.55;;;-6.69;93.26
34065;BME280;20339;49.754;20.158;2022-12-18T05:23:43;98273.17;;;-6.71;93.21
34065;BME280;20339;49.754;20.158;2022-12-18T05:26:15;98273.77;;;-6.70;93.19
34065;BME280;20339;49.754;20.158;2022-12-18T05:28:47;98272.80;;;-6.68;93.37
34065;BME280;20339;49.754;20.158;2022-12-18T05:31:16;98273.55;;;-6.68;93.29
34065;BME280;20339;49.754;20.158;2022-12-18T05:33:44;98268.11;;;-6.66;93.16
34065;BME280;20339;49.754;20.158;2022-12-18T05:36:13;98271.58;;;-6.64;93.24
34065;BME280;20339;49.754;20.158;2022-12-18T05:38:43;98278.20;;;-6.64;93.21
34065;BME280;20339;49.754;20.158;2022-12-18T05:41:11;98282.41;;;-6.64;93.02
34065;BME280;20339;49.754;20.158;2022-12-18T05:43:42;98285.45;;;-6.64;93.18
34065;BME280;20339;49.754;20.158;2022-12-18T05:46:15;98287.85;;;-6.64;93.18
34065;BME280;20339;49.754;20.158;2022-12-18T05:48:44;98294.52;;;-6.63;93.01
34065;BME280;20339;49.754;20.158;2022-12-18T05:51:15;98299.65;;;-6.63;93.08
34065;BME280;20339;49.754;20.158;2022-12-18T05:53:44;98298.95;;;-6.63;93.07
34065;BME280;20339;49.754;20.158;2022-12-18T05:56:14;98297.35;;;-6.62;93.08
34065;BME280;20339;49.754;20.158;2022-12-18T05:58:46;98299.73;;;-6.62;93.11
34065;BME280;20339;49.754;20.158;2022-12-18T06:01:17;98304.91;;;-6.62;93.10
34065;BME280;20339;49.754;20.158;2022-12-18T06:03:46;98308.60;;;-6.61;93.24
34065;BME280;20339;49.754;20.158;2022-12-18T06:06:16;98310.70;;;-6.59;93.12
34065;BME280;20339;49.754;20.158;2022-12-18T06:08:48;98317.33;;;-6.58;93.08
34065;BME280;20339;49.754;20.158;2022-12-18T06:11:19;98316.07;;;-6.57;93.01
34065;BME280;20339;49.754;20.158;2022-12-18T06:13:50;98315.15;;;-6.57;93.18
34065;BME280;20339;49.754;20.158;2022-12-18T06:16:22;98320.02;;;-6.57;93.01
34065;BME280;20339;49.754;20.158;2022-12-18T06:18:50;98331.19;;;-6.57;92.87
34065;BME280;20339;49.754;20.158;2022-12-18T06:21:19;98330.43;;;-6.59;92.95
34065;BME280;20339;49.754;20.158;2022-12-18T06:23:50;98331.27;;;-6.58;92.89
34065;BME280;20339;49.754;20.158;2022-12-18T06:26:19;98334.71;;;-6.61;92.85
34065;BME280;20339;49.754;20.158;2022-12-18T06:28:48;98335.24;;;-6.65;92.97
34065;BME280;20339;49.754;20.158;2022-12-18T06:31:16;98338.48;;;-6.69;92.99
34065;BME280;20339;49.754;20.158;2022-12-18T06:33:45;98339.34;;;-6.69;92.94
34065;BME280;20339;49.754;20.158;2022-12-18T06:36:14;98343.65;;;-6.69;93.00
34065;BME280;20339;49.754;20.158;2022-12-18T06:38:44;98352.55;;;-6.70;92.75
34065;BME280;20339;49.754;20.158;2022-12-18T06:41:15;98352.80;;;-6.69;92.91
34065;BME280;20339;49.754;20.158;2022-12-18T06:43:45;98351.70;;;-6.70;92.91
34065;BME280;20339;49.754;20.158;2022-12-18T06:46:15;98355.77;;;-6.70;92.81
34065;BME280;20339;49.754;20.158;2022-12-18T06:48:47;98361.66;;;-6.70;92.94
34065;BME280;20339;49.754;20.158;2022-12-18T06:51:18;98362.80;;;-6.71;92.99
34065;BME280;20339;49.754;20.158;2022-12-18T06:53:47;98362.52;;;-6.74;93.19
34065;BME280;20339;49.754;20.158;2022-12-18T06:56:16;98365.96;;;-6.74;92.95
34065;BME280;20339;49.754;20.158;2022-12-18T06:58:45;98367.70;;;-6.75;93.00
34065;BME280;20339;49.754;20.158;2022-12-18T07:01:14;98376.12;;;-6.74;92.80
34065;BME280;20339;49.754;20.158;2022-12-18T07:03:42;98376.06;;;-6.74;92.77
34065;BME280;20339;49.754;20.158;2022-12-18T07:06:16;98378.24;;;-6.71;92.90
34065;BME280;20339;49.754;20.158;2022-12-18T07:08:45;98382.08;;;-6.70;92.80
34065;BME280;20339;49.754;20.158;2022-12-18T07:11:15;98383.80;;;-6.68;92.81
34065;BME280;20339;49.754;20.158;2022-12-18T07:13:44;98385.65;;;-6.65;92.83
34065;BME280;20339;49.754;20.158;2022-12-18T07:16:14;98393.14;;;-6.62;93.03
34065;BME280;20339;49.754;20.158;2022-12-18T07:18:42;98393.40;;;-6.61;92.52
34065;BME280;20339;49.754;20.158;2022-12-18T07:21:16;98393.46;;;-6.62;92.61
34065;BME280;20339;49.754;20.158;2022-12-18T07:23:45;98392.27;;;-6.62;92.61
34065;BME280;20339;49.754;20.158;2022-12-18T07:26:17;98401.40;;;-6.62;92.57
34065;BME280;20339;49.754;20.158;2022-12-18T07:28:48;98409.18;;;-6.61;92.48
34065;BME280;20339;49.754;20.158;2022-12-18T07:31:20;98415.15;;;-6.58;92.80
34065;BME280;20339;49.754;20.158;2022-12-18T07:33:50;98418.14;;;-6.55;92.70
34065;BME280;20339;49.754;20.158;2022-12-18T07:36:20;98422.44;;;-6.54;92.48
34065;BME280;20339;49.754;20.158;2022-12-18T07:38:50;98427.33;;;-6.55;92.55
34065;BME280;20339;49.754;20.158;2022-12-18T07:41:22;98428.80;;;-6.52;92.62
34065;BME280;20339;49.754;20.158;2022-12-18T07:43:55;98429.37;;;-6.53;92.33
34065;BME280;20339;49.754;20.158;2022-12-18T07:46:26;98431.04;;;-6.50;92.51
34065;BME280;20339;49.754;20.158;2022-12-18T07:48:55;98438.16;;;-6.49;92.43
34065;BME280;20339;49.754;20.158;2022-12-18T07:51:26;98438.77;;;-6.48;92.38
34065;BME280;20339;49.754;20.158;2022-12-18T07:53:56;98435.14;;;-6.46;92.54
34065;BME280;20339;49.754;20.158;2022-12-18T07:56:25;98432.09;;;-6.44;92.53
34065;BME280;20339;49.754;20.158;2022-12-18T07:58:56;98435.64;;;-6.41;92.28
34065;BME280;20339;49.754;20.158;2022-12-18T08:01:26;98437.52;;;-6.37;92.18
34065;BME280;20339;49.754;20.158;2022-12-18T08:03:59;98439.64;;;-6.34;92.37
34065;BME280;20339;49.754;20.158;2022-12-18T08:06:29;98438.13;;;-6.30;92.12
34065;BME280;20339;49.754;20.158;2022-12-18T08:09:00;98439.42;;;-6.25;92.42
34065;BME280;20339;49.754;20.158;2022-12-18T08:11:30;98443.14;;;-6.20;92.35
34065;BME280;20339;49.754;20.158;2022-12-18T08:13:59;98447.91;;;-6.17;92.27
34065;BME280;20339;49.754;20.158;2022-12-18T08:16:28;98446.48;;;-6.13;92.30
34065;BME280;20339;49.754;20.158;2022-12-18T08:18:59;98444.84;;;-6.05;92.23
34065;BME280;20339;49.754;20.158;2022-12-18T08:21:29;98446.89;;;-6.03;92.15
34065;BME280;20339;49.754;20.158;2022-12-18T08:24:01;98442.60;;;-5.95;92.18
34065;BME280;20339;49.754;20.158;2022-12-18T08:26:30;98444.73;;;-5.90;92.05
34065;BME280;20339;49.754;20.158;2022-12-18T08:29:00;98448.11;;;-5.83;92.04
34065;BME280;20339;49.754;20.158;2022-12-18T08:31:30;98449.91;;;-5.68;92.00
34065;BME280;20339;49.754;20.158;2022-12-18T08:33:59;98451.88;;;-5.45;92.10
34065;BME280;20339;49.754;20.158;2022-12-18T08:36:29;98447.06;;;-5.27;92.10
34065;BME280;20339;49.754;20.158;2022-12-18T08:38:59;98447.45;;;-5.04;92.15
34065;BME280;20339;49.754;20.158;2022-12-18T08:41:28;98452.02;;;-4.62;92.47
34065;BME280;20339;49.754;20.158;2022-12-18T08:43:58;98447.77;;;-4.23;92.42
34065;BME280;20339;49.754;20.158;2022-12-18T08:46:45;98449.11;;;-4.04;91.55
34065;BME280;20339;49.754;20.158;2022-12-18T08:49:15;98450.65;;;-4.00;90.88
34065;BME280;20339;49.754;20.158;2022-12-18T08:51:44;98452.67;;;-3.90;90.76
34065;BME280;20339;49.754;20.158;2022-12-18T08:54:15;98453.33;;;-3.69;90.80
34065;BME280;20339;49.754;20.158;2022-12-18T08:56:43;98451.09;;;-3.49;90.54
34065;BME280;20339;49.754;20.158;2022-12-18T08:59:12;98454.91;;;-3.33;90.19
34065;BME280;20339;49.754;20.158;2022-12-18T09:01:41;98455.13;;;-3.28;89.50
34065;BME280;20339;49.754;20.158;2022-12-18T09:04:10;98460.46;;;-3.35;88.80
34065;BME280;20339;49.754;20.158;2022-12-18T09:06:38;98466.00;;;-3.35;88.55
34065;BME280;20339;49.754;20.158;2022-12-18T09:09:09;98464.95;;;-3.26;88.35
34065;BME280;20339;49.754;20.158;2022-12-18T09:11:37;98469.86;;;-3.17;88.29
34065;BME280;20339;49.754;20.158;2022-12-18T09:14:06;98469.10;;;-3.09;87.90
34065;BME280;20339;49.754;20.158;2022-12-18T09:16:36;98469.77;;;-2.98;87.86
34065;BME280;20339;49.754;20.158;2022-12-18T09:19:05;98473.20;;;-2.96;87.49
34065;BME280;20339;49.754;20.158;2022-12-18T09:21:39;98475.73;;;-2.97;87.36
34065;BME280;20339;49.754;20.158;2022-12-18T09:24:12;98474.90;;;-2.92;87.46
34065;BME280;20339;49.754;20.158;2022-12-18T09:26:42;98478.45;;;-3.04;86.49
34065;BME280;20339;49.754;20.158;2022-12-18T09:29:11;98482.25;;;-3.17;86.02
34065;BME280;20339;49.754;20.158;2022-12-18T09:31:40;98483.73;;;-3.21;86.05
34065;BME280;20339;49.754;20.158;2022-12-18T09:34:08;98482.93;;;-3.13;86.19
34065;BME280;20339;49.754;20.158;2022-12-18T09:36:38;98483.83;;;-2.97;86.47
34065;BME280;20339;49.754;20.158;2022-12-18T09:39:07;98483.14;;;-2.72;86.69
34065;BME280;20339;49.754;20.158;2022-12-18T09:41:44;98484.37;;;-2.66;85.99
34065;BME280;20339;49.754;20.158;2022-12-18T09:44:19;98479.08;;;-2.62;85.95
34065;BME280;20339;49.754;20.158;2022-12-18T09:46:54;98475.40;;;-2.71;85.26
34065;BME280;20339;49.754;20.158;2022-12-18T09:49:28;98480.23;;;-2.83;84.87
34065;BME280;20339;49.754;20.158;2022-12-18T09:52:02;98475.73;;;-2.79;84.94
34065;BME280;20339;49.754;20.158;2022-12-18T09:54:35;98483.04;;;-2.81;84.50
34065;BME280;20339;49.754;20.158;2022-12-18T09:57:16;98485.25;;;-2.81;84.31
34065;BME280;20339;49.754;20.158;2022-12-18T09:59:52;98479.95;;;-2.85;83.97
34065;BME280;20339;49.754;20.158;2022-12-18T10:02:24;98483.95;;;-2.87;84.12
34065;BME280;20339;49.754;20.158;2022-12-18T10:05:03;98481.58;;;-2.72;84.49
34065;BME280;20339;49.754;20.158;2022-12-18T10:07:41;98482.54;;;-2.48;84.28
34065;BME280;20339;49.754;20.158;2022-12-18T10:10:21;98481.20;;;-2.34;84.28
34065;BME280;20339;49.754;20.158;2022-12-18T10:12:56;98481.77;;;-2.08;84.41
34065;BME280;20339;49.754;20.158;2022-12-18T10:15:36;98483.29;;;-1.75;84.29
34065;BME280;20339;49.754;20.158;2022-12-18T10:18:19;98483.92;;;-1.59;83.29
34065;BME280;20339;49.754;20.158;2022-12-18T10:20:54;98484.61;;;-1.37;83.13
34065;BME280;20339;49.754;20.158;2022-12-18T10:23:28;98481.70;;;-1.31;82.55
34065;BME280;20339;49.754;20.158;2022-12-18T10:26:05;98485.48;;;-1.44;81.16
34065;BME280;20339;49.754;20.158;2022-12-18T10:28:36;98480.23;;;-1.37;81.53
34065;BME280;20339;49.754;20.158;2022-12-18T10:31:07;98479.05;;;-1.39;81.05
34065;BME280;20339;49.754;20.158;2022-12-18T10:33:42;98475.86;;;-1.40;80.53
34065;BME280;20339;49.754;20.158;2022-12-18T10:36:13;98478.19;;;-1.47;80.31
34065;BME280;20339;49.754;20.158;2022-12-18T10:38:41;98482.41;;;-1.75;79.29
34065;BME280;20339;49.754;20.158;2022-12-18T10:41:25;98492.35;;;-1.86;79.47
34065;BME280;20339;49.754;20.158;2022-12-18T10:44:14;98490.52;;;-2.01;79.69
34065;BME280;20339;49.754;20.158;2022-12-18T10:46:46;98485.05;;;-2.03;80.07
34065;BME280;20339;49.754;20.158;2022-12-18T10:49:23;98476.83;;;-1.99;79.90
34065;BME280;20339;49.754;20.158;2022-12-18T10:52:05;98473.72;;;-2.08;79.23
34065;BME280;20339;49.754;20.158;2022-12-18T10:54:36;98471.31;;;-2.17;79.44
34065;BME280;20339;49.754;20.158;2022-12-18T10:57:19;98468.48;;;-2.18;78.93
34065;BME280;20339;49.754;20.158;2022-12-18T10:59:59;98469.40;;;-2.25;78.76
34065;BME280;20339;49.754;20.158;2022-12-18T11:02:38;98465.55;;;-2.41;78.40
34065;BME280;20339;49.754;20.158;2022-12-18T11:05:25;98462.54;;;-2.54;78.83
34065;BME280;20339;49.754;20.158;2022-12-18T11:07:54;98458.82;;;-2.58;78.86
34065;BME280;20339;49.754;20.158;2022-12-18T11:10:28;98460.89;;;-2.60;78.82
34065;BME280;20339;49.754;20.158;2022-12-18T11:13:10;98460.44;;;-2.62;79.02
34065;BME280;20339;49.754;20.158;2022-12-18T11:15:41;98454.63;;;-2.67;78.57
34065;BME280;20339;49.754;20.158;2022-12-18T11:18:15;98457.92;;;-2.71;78.77
34065;BME280;20339;49.754;20.158;2022-12-18T11:20:52;98457.41;;;-2.85;78.34
34065;BME280;20339;49.754;20.158;2022-12-18T11:23:22;98453.75;;;-2.88;78.80
34065;BME280;20339;49.754;20.158;2022-12-18T11:25:54;98452.58;;;-2.76;79.16
34065;BME280;20339;49.754;20.158;2022-12-18T11:28:29;98449.22;;;-2.72;78.71
34065;BME280;20339;49.754;20.158;2022-12-18T11:31:20;98445.95;;;-2.66;78.91
34065;BME280;20339;49.754;20.158;2022-12-18T11:33:55;98446.42;;;-2.66;78.28
34065;BME280;20339;49.754;20.158;2022-12-18T11:36:29;98439.05;;;-2.78;78.05
34065;BME280;20339;49.754;20.158;2022-12-18T11:39:03;98439.98;;;-2.82;78.14
34065;BME280;20339;49.754;20.158;2022-12-18T11:41:39;98442.13;;;-2.82;78.50
34065;BME280;20339;49.754;20.158;2022-12-18T11:44:35;98444.66;;;-2.80;78.27
34065;BME280;20339;49.754;20.158;2022-12-18T11:47:15;98447.66;;;-2.74;78.50
34065;BME280;20339;49.754;20.158;2022-12-18T11:49:49;98444.56;;;-2.63;78.93
34065;BME280;20339;49.754;20.158;2022-12-18T11:52:21;98446.61;;;-2.61;78.36
34065;BME280;20339;49.754;20.158;2022-12-18T11:54:52;98451.10;;;-2.61;78.12
34065;BME280;20339;49.754;20.158;2022-12-18T11:57:30;98451.09;;;-2.59;78.13
34065;BME280;20339;49.754;20.158;2022-12-18T12:00:09;98454.63;;;-2.65;78.25
34065;BME280;20339;49.754;20.158;2022-12-18T12:03:04;98458.38;;;-2.64;77.99
34065;BME280;20339;49.754;20.158;2022-12-18T12:05:46;98459.61;;;-2.72;78.01
34065;BME280;20339;49.754;20.158;2022-12-18T12:08:26;98461.73;;;-2.58;78.05
34065;BME280;20339;49.754;20.158;2022-12-18T12:11:06;98467.58;;;-2.60;77.77
34065;BME280;20339;49.754;20.158;2022-12-18T12:13:47;98468.67;;;-2.60;78.11
34065;BME280;20339;49.754;20.158;2022-12-18T12:16:23;98470.16;;;-2.59;77.89
34065;BME280;20339;49.754;20.158;2022-12-18T12:19:12;98469.50;;;-2.51;78.06
34065;BME280;20339;49.754;20.158;2022-12-18T12:21:50;98473.77;;;-2.41;77.97
34065;BME280;20339;49.754;20.158;2022-12-18T12:24:29;98470.66;;;-2.29;78.21
34065;BME280;20339;49.754;20.158;2022-12-18T12:27:08;98467.04;;;-2.29;77.71
34065;BME280;20339;49.754;20.158;2022-12-18T12:29:49;98475.27;;;-2.41;77.38
34065;BME280;20339;49.754;20.158;2022-12-18T12:32:30;98469.68;;;-2.44;77.37
34065;BME280;20339;49.754;20.158;2022-12-18T12:35:18;98469.41;;;-2.53;77.13
34065;BME280;20339;49.754;20.158;2022-12-18T12:38:00;98464.10;;;-2.65;77.18
34065;BME280;20339;49.754;20.158;2022-12-18T12:40:34;98465.73;;;-2.58;77.46
34065;BME280;20339;49.754;20.158;2022-12-18T12:43:10;98467.00;;;-2.75;76.97
34065;BME280;20339;49.754;20.158;2022-12-18T12:45:44;98468.26;;;-2.81;77.46
34065;BME280;20339;49.754;20.158;2022-12-18T12:48:20;98474.83;;;-2.88;77.02
34065;BME280;20339;49.754;20.158;2022-12-18T12:50:53;98481.70;;;-3.02;77.09
34065;BME280;20339;49.754;20.158;2022-12-18T12:53:29;98487.23;;;-3.15;77.10
34065;BME280;20339;49.754;20.158;2022-12-18T12:55:59;98494.73;;;-3.10;77.66
34065;BME280;20339;49.754;20.158;2022-12-18T12:58:36;98499.16;;;-3.09;77.63
34065;BME280;20339;49.754;20.158;2022-12-18T13:01:18;98511.34;;;-2.99;77.96
34065;BME280;20339;49.754;20.158;2022-12-18T13:04:02;98514.94;;;-2.97;77.81
34065;BME280;20339;49.754;20.158;2022-12-18T13:06:42;98514.30;;;-2.88;78.04
34065;BME280;20339;49.754;20.158;2022-12-18T13:09:11;98513.40;;;-2.82;78.07
34065;BME280;20339;49.754;20.158;2022-12-18T13:11:41;98517.48;;;-2.71;78.40
34065;BME280;20339;49.754;20.158;2022-12-18T13:14:33;98523.88;;;-2.63;77.98
34065;BME280;20339;49.754;20.158;2022-12-18T13:17:28;98526.73;;;-2.77;77.58